Time;durP1;ratioP1;P1;durP2;ratioP2;P2;SDS_P1;SDS_P2;PMS_P1;PMS_P2;Temp;Humidity;BMP_temperature;BMP_pressure;BME280_temperature;BME280_humidity;BME280_pressure;Samples;Min_cycle;Max_cycle;Signal;HPM_P1;HPM_P2
2021/06/15 00:01:29;;;;;;;13.40;11.13;;;20.40;66.30;;;;;;5070007;28;20094;-72
2021/06/15 00:03:55;;;;;;;13.68;11.43;;;20.40;66.70;;;;;;5055070;28;20048;-71
2021/06/15 00:06:21;;;;;;;15.07;11.20;;;20.40;66.70;;;;;;5051564;28;20045;-71
2021/06/15 00:08:47;;;;;;;13.85;11.63;;;20.40;66.80;;;;;;5070287;28;20023;-72
2021/06/15 00:11:13;;;;;;;15.45;11.23;;;20.30;67.00;;;;;;5064939;28;20087;-71
2021/06/15 00:13:38;;;;;;;13.90;11.50;;;20.20;67.20;;;;;;5054885;28;20036;-72
2021/06/15 00:16:04;;;;;;;14.98;11.00;;;20.20;67.30;;;;;;5070639;28;20028;-71
2021/06/15 00:18:33;;;;;;;17.58;12.68;;;20.20;67.40;;;;;;5070392;28;20024;-73
2021/06/15 00:20:59;;;;;;;16.65;12.48;;;20.20;67.70;;;;;;5072906;28;20479;-71
2021/06/15 00:23:24;;;;;;;14.63;11.95;;;20.20;67.90;;;;;;5071627;28;20114;-71
2021/06/15 00:25:50;;;;;;;15.57;12.05;;;20.10;68.00;;;;;;5071892;28;20033;-72
2021/06/15 00:28:16;;;;;;;14.60;11.85;;;20.10;68.10;;;;;;5083024;28;20040;-72
2021/06/15 00:30:42;;;;;;;14.68;12.63;;;20.10;68.30;;;;;;5070455;28;20358;-71
2021/06/15 00:33:08;;;;;;;14.80;12.63;;;20.00;68.20;;;;;;5056321;28;20119;-73
2021/06/15 00:35:33;;;;;;;15.93;13.00;;;20.10;68.20;;;;;;5050517;28;20116;-72
2021/06/15 00:37:59;;;;;;;15.32;12.45;;;20.00;68.50;;;;;;5066267;28;20405;-74
2021/06/15 00:40:25;;;;;;;14.63;12.27;;;20.00;68.70;;;;;;5075249;28;20029;-72
2021/06/15 00:42:51;;;;;;;14.52;12.32;;;19.90;68.70;;;;;;5069993;28;20326;-72
2021/06/15 00:45:23;;;;;;;15.25;12.35;;;19.90;68.80;;;;;;5069492;28;20037;-72
2021/06/15 00:47:49;;;;;;;17.08;12.45;;;19.90;69.00;;;;;;5070901;28;20043;-72
2021/06/15 00:50:16;;;;;;;16.77;12.98;;;19.80;69.30;;;;;;5054173;28;20032;-74
2021/06/15 00:52:42;;;;;;;14.98;12.55;;;19.80;69.40;;;;;;5054397;28;20412;-72
2021/06/15 00:55:08;;;;;;;15.85;12.88;;;19.80;69.50;;;;;;5063717;28;20033;-72
2021/06/15 00:57:34;;;;;;;15.23;13.48;;;19.70;69.60;;;;;;5058147;28;20439;-75
2021/06/15 01:00:00;;;;;;;19.33;13.57;;;19.70;69.80;;;;;;5066963;28;20032;-71
2021/06/15 01:02:29;;;;;;;15.43;13.77;;;19.70;70.00;;;;;;5065934;28;20132;-71
2021/06/15 01:04:56;;;;;;;14.93;13.27;;;19.60;70.10;;;;;;5050955;28;20036;-71
2021/06/15 01:07:44;;;;;;;19.30;13.52;;;19.60;70.10;;;;;;5065047;28;20028;-72
2021/06/15 01:10:30;;;;;;;15.50;13.88;;;19.60;70.20;;;;;;5071646;28;20037;-73
2021/06/15 01:13:19;;;;;;;15.90;13.60;;;19.60;70.50;;;;;;5087295;28;20534;-73
2021/06/15 01:15:59;;;;;;;17.48;14.45;;;19.60;70.40;;;;;;5086546;28;20056;-72
2021/06/15 01:24:35;;;;;;;17.13;14.02;;;19.50;70.80;;;;;;5121490;22;20049;-83
2021/06/15 01:27:25;;;;;;;18.48;14.48;;;19.50;70.90;;;;;;5042734;28;20029;-84
2021/06/15 01:29:55;;;;;;;17.52;13.68;;;19.40;71.20;;;;;;5031888;28;20454;-85
2021/06/15 01:32:28;;;;;;;17.05;14.00;;;19.40;71.40;;;;;;5013742;28;20049;-84
2021/06/15 01:34:55;;;;;;;16.60;13.88;;;19.40;71.50;;;;;;5019919;28;20033;-85
2021/06/15 01:37:37;;;;;;;16.88;14.38;;;19.30;71.50;;;;;;5033952;28;20044;-84
2021/06/15 01:40:13;;;;;;;18.33;15.25;;;19.40;71.50;;;;;;5036847;28;20053;-84
2021/06/15 01:43:19;;;;;;;18.17;14.57;;;19.30;71.70;;;;;;5027424;28;20021;-83
2021/06/15 01:45:47;;;;;;;18.90;15.85;;;19.20;72.00;;;;;;4994706;28;20053;-84
2021/06/15 01:48:34;;;;;;;23.20;15.45;;;19.20;72.20;;;;;;5040776;28;20084;-84
2021/06/15 01:51:03;;;;;;;15.52;13.65;;;19.20;72.10;;;;;;5020161;28;20029;-84
2021/06/15 01:53:30;;;;;;;21.48;15.73;;;19.20;72.10;;;;;;5037056;28;20083;-84
2021/06/15 01:56:01;;;;;;;17.70;14.88;;;19.20;72.20;;;;;;5029327;28;20543;-85
2021/06/15 01:58:30;;;;;;;24.02;17.25;;;19.20;72.30;;;;;;5029128;28;20144;-84
2021/06/15 02:00:57;;;;;;;18.02;15.00;;;19.20;72.80;;;;;;5035723;28;20061;-86
2021/06/15 02:03:24;;;;;;;17.80;15.30;;;19.00;73.00;;;;;;5030189;28;20473;-85
2021/06/15 02:05:55;;;;;;;19.80;16.15;;;19.00;73.20;;;;;;5018111;28;20026;-86
2021/06/15 02:08:34;;;;;;;18.80;16.00;;;19.00;73.20;;;;;;5046947;28;20489;-88
2021/06/15 02:11:02;;;;;;;21.35;16.30;;;19.00;73.40;;;;;;5035530;28;20068;-86
2021/06/15 02:13:30;;;;;;;17.50;15.65;;;18.90;73.40;;;;;;5018230;28;20084;-84
2021/06/15 02:15:57;;;;;;;18.20;16.02;;;18.80;73.50;;;;;;5031745;28;20488;-85
2021/06/15 02:18:26;;;;;;;19.88;16.40;;;18.90;73.60;;;;;;5017174;28;20103;-85
2021/06/15 02:20:55;;;;;;;19.73;17.20;;;18.90;73.60;;;;;;5018750;28;20071;-84
2021/06/15 02:23:23;;;;;;;19.88;15.77;;;18.90;73.70;;;;;;5019233;28;20075;-85
2021/06/15 02:26:03;;;;;;;20.65;16.35;;;18.80;73.80;;;;;;5029362;28;20452;-86
2021/06/15 02:28:29;;;;;;;20.25;18.13;;;18.80;73.90;;;;;;5036301;28;20027;-86
2021/06/15 02:30:58;;;;;;;22.13;17.80;;;18.70;74.30;;;;;;5026129;28;20025;-84
2021/06/15 02:33:27;;;;;;;18.27;15.85;;;18.60;74.60;;;;;;5035798;28;20025;-85
2021/06/15 02:35:59;;;;;;;24.95;19.38;;;18.60;74.60;;;;;;5037816;28;20024;-85
2021/06/15 02:38:31;;;;;;;25.15;17.73;;;18.50;75.00;;;;;;5035055;28;20033;-84
2021/06/15 02:41:15;;;;;;;22.77;17.80;;;18.50;75.10;;;;;;5026265;28;20071;-84
2021/06/15 02:43:43;;;;;;;22.55;17.75;;;18.60;74.90;;;;;;5017292;28;20030;-84
2021/06/15 02:46:15;;;;;;;20.52;17.85;;;18.70;74.80;;;;;;5035303;28;20037;-84
2021/06/15 02:48:44;;;;;;;21.67;17.67;;;18.70;74.60;;;;;;5034269;28;20025;-84
2021/06/15 02:51:11;;;;;;;18.98;16.48;;;18.70;74.70;;;;;;5049808;28;20276;-85
2021/06/15 02:53:45;;;;;;;21.17;16.95;;;18.70;74.90;;;;;;5001858;28;20122;-84
2021/06/15 02:56:17;;;;;;;21.58;16.23;;;18.70;74.80;;;;;;5045268;28;20025;-84
2021/06/15 02:58:45;;;;;;;21.67;17.48;;;18.70;74.80;;;;;;5036562;28;20024;-84
2021/06/15 03:01:10;;;;;;;16.92;14.88;;;18.70;74.90;;;;;;5017334;28;20041;-85
2021/06/15 03:03:39;;;;;;;17.60;15.60;;;18.70;74.90;;;;;;4998528;28;20025;-85
2021/06/15 03:06:05;;;;;;;21.35;17.92;;;18.60;74.80;;;;;;5017270;28;20037;-85
2021/06/15 03:08:33;;;;;;;21.02;16.08;;;18.50;75.20;;;;;;5026778;28;20017;-85
2021/06/15 03:10:58;;;;;;;28.15;18.60;;;18.50;75.20;;;;;;5036670;28;20033;-84
2021/06/15 03:13:45;;;;;;;20.42;16.10;;;18.50;75.40;;;;;;5015667;28;20331;-85
2021/06/15 03:16:16;;;;;;;22.05;17.08;;;18.40;75.70;;;;;;5035330;28;20122;-85
2021/06/15 03:18:51;;;;;;;22.50;17.00;;;18.40;75.90;;;;;;5032878;28;20126;-84
2021/06/15 03:21:20;;;;;;;19.40;16.55;;;18.40;76.00;;;;;;5034389;28;20135;-85
2021/06/15 03:23:58;;;;;;;18.48;16.10;;;18.40;75.80;;;;;;5029155;28;20045;-85
2021/06/15 03:26:28;;;;;;;21.83;16.08;;;18.40;75.80;;;;;;5042234;28;20135;-87
2021/06/15 03:28:59;;;;;;;21.50;16.27;;;18.40;75.80;;;;;;5032627;28;20026;-85
2021/06/15 03:31:27;;;;;;;21.30;17.55;;;18.30;76.00;;;;;;5035648;28;20021;-87
2021/06/15 03:33:56;;;;;;;20.75;16.13;;;18.40;76.10;;;;;;5021554;28;20029;-83
2021/06/15 03:36:23;;;;;;;21.35;17.15;;;18.40;76.10;;;;;;5028425;28;22235;-84
2021/06/15 03:38:50;;;;;;;25.55;18.65;;;18.30;76.10;;;;;;5015593;28;20033;-85
2021/06/15 03:41:17;;;;;;;20.77;17.30;;;18.30;76.20;;;;;;5026645;28;20057;-86
2021/06/15 03:43:56;;;;;;;24.48;18.08;;;18.30;76.40;;;;;;5050652;28;20099;-83
2021/06/15 03:46:24;;;;;;;22.10;18.23;;;18.30;76.40;;;;;;5015721;28;20466;-85
2021/06/15 03:48:52;;;;;;;21.60;17.70;;;18.30;76.60;;;;;;5022301;28;20124;-83
2021/06/15 03:51:23;;;;;;;23.08;19.30;;;18.20;76.70;;;;;;5016030;28;20454;-84
2021/06/15 03:53:50;;;;;;;20.25;17.10;;;18.20;76.70;;;;;;5044319;28;20041;-86
2021/06/15 03:56:19;;;;;;;20.15;17.35;;;18.30;76.60;;;;;;5035227;28;20025;-85
2021/06/15 03:58:46;;;;;;;22.45;17.70;;;18.30;76.70;;;;;;5033531;28;20029;-84
2021/06/15 04:01:13;;;;;;;17.50;15.43;;;18.20;76.70;;;;;;5015972;28;20030;-84
2021/06/15 04:03:40;;;;;;;23.05;16.55;;;18.20;76.60;;;;;;5016042;28;20034;-85
2021/06/15 04:06:08;;;;;;;21.50;16.30;;;18.30;76.50;;;;;;4998656;28;20368;-85
2021/06/15 04:08:37;;;;;;;19.60;15.48;;;18.30;76.50;;;;;;5022897;28;20036;-84
2021/06/15 04:11:06;;;;;;;19.42;14.98;;;18.40;76.30;;;;;;5015848;28;20021;-84
2021/06/15 04:13:32;;;;;;;18.35;15.18;;;18.60;75.90;;;;;;4999183;28;20029;-85
2021/06/15 04:15:59;;;;;;;18.73;13.45;;;18.70;75.60;;;;;;5015942;28;20229;-83
2021/06/15 04:18:27;;;;;;;18.92;15.23;;;18.80;75.30;;;;;;5032760;28;20041;-85
2021/06/15 04:20:58;;;;;;;21.45;14.60;;;18.90;74.90;;;;;;5031749;28;20087;-84
2021/06/15 04:23:29;;;;;;;20.63;16.42;;;18.90;74.70;;;;;;5048067;28;20049;-86
2021/06/15 04:25:56;;;;;;;21.38;17.17;;;18.90;74.60;;;;;;5025231;28;20025;-86
2021/06/15 04:28:21;;;;;;;25.23;18.95;;;18.70;75.10;;;;;;5052989;28;20152;-85
2021/06/15 04:30:49;;;;;;;21.35;17.17;;;18.50;75.90;;;;;;5002049;28;20063;-84
2021/06/15 04:33:18;;;;;;;21.27;15.95;;;18.20;76.70;;;;;;5016498;28;20026;-84
2021/06/15 04:35:48;;;;;;;20.73;14.30;;;18.30;76.80;;;;;;5034001;28;20029;-84
2021/06/15 04:38:17;;;;;;;18.60;13.65;;;18.30;76.60;;;;;;5050039;28;20508;-84
2021/06/15 04:40:48;;;;;;;21.27;15.20;;;18.40;76.20;;;;;;5022370;28;20025;-84
2021/06/15 04:43:36;;;;;;;21.40;16.45;;;18.60;76.00;;;;;;5035978;28;20545;-85
2021/06/15 04:46:33;;;;;;;17.23;13.15;;;18.70;75.60;;;;;;5015301;28;20021;-85
2021/06/15 04:49:30;;;;;;;21.92;14.27;;;18.80;75.30;;;;;;5017560;28;20029;-84
2021/06/15 04:52:00;;;;;;;20.27;14.82;;;18.70;75.10;;;;;;5006348;28;20040;-85
2021/06/15 04:54:33;;;;;;;17.60;12.93;;;18.80;75.10;;;;;;5023122;28;20029;-85
2021/06/15 04:56:59;;;;;;;;;;;18.90;74.90;;;;;;5017370;28;20037;-86
2021/06/15 04:59:27;;;;;;;16.02;12.73;;;19.30;74.20;;;;;;5033162;28;19905;-84
2021/06/15 05:01:52;;;;;;;15.88;11.30;;;19.80;72.60;;;;;;5020377;28;20537;-84
2021/06/15 05:04:19;;;;;;;15.82;11.50;;;20.30;71.20;;;;;;5026626;28;20168;-85
2021/06/15 05:06:46;;;;;;;15.80;11.27;;;20.70;70.10;;;;;;5017670;28;20037;-86
2021/06/15 05:09:15;;;;;;;15.38;11.98;;;21.20;69.20;;;;;;5017953;28;20025;-85
2021/06/15 05:11:41;;;;;;;18.98;12.63;;;21.60;67.60;;;;;;5035413;28;20028;-85
2021/06/15 05:14:11;;;;;;;14.05;11.07;;;22.00;66.30;;;;;;5044863;28;20031;-86
2021/06/15 05:16:39;;;;;;;12.38;9.48;;;22.20;66.00;;;;;;5025009;28;20055;-86
2021/06/15 05:19:05;;;;;;;13.68;10.00;;;22.40;65.50;;;;;;5009756;28;20028;-89
2021/06/15 05:21:54;;;;;;;15.50;11.15;;;22.70;64.10;;;;;;5044925;28;20516;-83
2021/06/15 05:24:50;;;;;;;12.65;10.70;;;22.70;63.90;;;;;;5032096;28;20068;-86
2021/06/15 05:27:42;;;;;;;16.15;10.65;;;21.90;65.30;;;;;;5046345;28;20029;-85
2021/06/15 05:30:08;;;;;;;11.32;9.77;;;22.00;65.60;;;;;;5054325;28;20064;-86
2021/06/15 05:32:34;;;;;;;16.92;10.65;;;21.80;65.80;;;;;;5034669;28;20033;-84
2021/06/15 05:35:00;;;;;;;13.43;10.65;;;22.50;64.40;;;;;;4997532;28;20029;-85
2021/06/15 05:37:26;;;;;;;12.60;8.15;;;23.50;62.50;;;;;;5014506;28;20037;-83
2021/06/15 05:39:55;;;;;;;12.73;9.75;;;24.90;60.40;;;;;;5027424;28;20029;-87
2021/06/15 05:42:21;;;;;;;12.20;9.02;;;25.90;56.20;;;;;;5034513;28;20033;-83
2021/06/15 05:44:46;;;;;;;11.77;9.35;;;26.50;54.50;;;;;;5005346;28;20026;-82
2021/06/15 05:47:12;;;;;;;13.07;8.93;;;26.40;53.80;;;;;;5006338;28;20040;-85
2021/06/15 05:49:38;;;;;;;10.38;7.53;;;26.30;53.10;;;;;;5020469;28;20449;-86
2021/06/15 05:52:06;;;;;;;10.90;8.52;;;26.30;53.40;;;;;;5001152;28;20036;-84
2021/06/15 05:54:33;;;;;;;10.35;7.90;;;26.40;52.90;;;;;;5036279;28;20029;-85
2021/06/15 05:56:58;;;;;;;10.20;7.05;;;26.50;53.40;;;;;;5047375;28;20033;-83
2021/06/15 05:59:25;;;;;;;8.75;6.35;;;26.90;52.60;;;;;;5050604;28;20087;-84
2021/06/15 06:01:51;;;;;;;8.85;7.80;;;27.60;51.50;;;;;;5038598;28;20030;-83
2021/06/15 06:04:21;;;;;;;11.18;7.22;;;27.80;49.70;;;;;;5025635;28;20176;-82
2021/06/15 06:09:30;;;;;;;8.20;7.13;;;28.20;49.30;;;;;;5036879;28;20116;-87
2021/06/15 06:11:56;;;;;;;9.90;6.28;;;28.40;48.30;;;;;;5050627;28;20052;-88
2021/06/15 06:14:22;;;;;;;5.82;5.30;;;28.10;47.70;;;;;;5035783;28;20029;-88
2021/06/15 06:16:47;;;;;;;6.50;5.32;;;27.80;48.80;;;;;;5019760;28;20033;-85
2021/06/15 06:19:15;;;;;;;5.40;4.88;;;27.90;48.60;;;;;;5036547;28;20106;-85
2021/06/15 06:21:43;;;;;;;6.72;4.97;;;27.80;48.70;;;;;;5048460;28;20477;-82
2021/06/15 06:24:10;;;;;;;7.25;5.32;;;28.40;48.10;;;;;;5025356;28;20048;-82
2021/06/15 06:26:36;;;;;;;7.07;4.25;;;28.60;46.80;;;;;;5026710;28;20033;-82
2021/06/15 06:29:01;;;;;;;12.20;6.10;;;28.70;47.00;;;;;;5019234;28;20052;-83
2021/06/15 06:31:27;;;;;;;8.55;6.07;;;28.40;46.70;;;;;;5037365;28;20020;-83
2021/06/15 06:33:53;;;;;;;7.05;4.25;;;28.80;46.60;;;;;;5020850;28;20029;-85
2021/06/15 06:36:18;;;;;;;8.63;5.05;;;29.20;46.40;;;;;;5014707;28;20037;-82
2021/06/15 06:38:52;;;;;;;6.22;4.85;;;29.30;45.80;;;;;;5035600;28;20504;-82
2021/06/15 06:41:18;;;;;;;6.03;4.82;;;28.70;46.20;;;;;;5052601;28;20032;-82
2021/06/15 06:43:45;;;;;;;7.28;6.35;;;27.90;47.80;;;;;;5038088;28;20036;-85
2021/06/15 06:46:11;;;;;;;7.80;5.05;;;27.60;48.20;;;;;;5045691;28;20351;-84
2021/06/15 06:48:37;;;;;;;5.72;4.82;;;26.80;49.10;;;;;;5036989;28;20517;-83
2021/06/15 06:51:03;;;;;;;7.15;4.60;;;26.00;51.50;;;;;;5017330;28;20026;-82
2021/06/15 06:53:29;;;;;;;4.90;4.40;;;26.20;51.40;;;;;;5018188;28;20377;-82
2021/06/15 06:55:55;;;;;;;8.02;4.93;;;26.40;50.50;;;;;;5046060;28;20025;-85
2021/06/15 06:58:21;;;;;;;6.82;4.90;;;26.10;50.90;;;;;;5034343;28;20120;-83
2021/06/15 07:00:47;;;;;;;8.30;4.88;;;25.90;51.50;;;;;;5034129;28;20033;-82
2021/06/15 07:03:13;;;;;;;6.70;5.32;;;25.30;52.30;;;;;;5007063;28;20554;-82
2021/06/15 07:05:38;;;;;;;7.47;5.15;;;24.70;53.70;;;;;;5016956;28;20029;-84
2021/06/15 07:08:04;;;;;;;7.20;4.78;;;24.10;55.20;;;;;;5043259;28;20028;-82
2021/06/15 07:10:30;;;;;;;8.40;5.47;;;23.90;56.20;;;;;;5027393;28;20025;-84
2021/06/15 07:12:56;;;;;;;5.00;4.40;;;24.30;56.20;;;;;;5042342;28;20036;-81
2021/06/15 07:15:22;;;;;;;6.50;5.55;;;24.40;55.00;;;;;;5054438;28;20036;-83
2021/06/15 07:17:48;;;;;;;5.38;3.88;;;24.50;55.20;;;;;;5048985;28;20388;-82
2021/06/15 07:20:14;;;;;;;5.35;4.38;;;24.70;54.30;;;;;;5021464;28;20029;-82
2021/06/15 07:22:40;;;;;;;6.95;4.45;;;24.40;54.30;;;;;;5030584;28;20128;-81
2021/06/15 07:25:07;;;;;;;8.70;3.95;;;24.40;54.80;;;;;;5021695;28;20539;-84
2021/06/15 07:27:32;;;;;;;6.43;4.85;;;24.30;54.90;;;;;;5002225;28;20486;-82
2021/06/15 07:29:58;;;;;;;6.90;4.60;;;24.20;55.80;;;;;;5051677;28;20029;-86
2021/06/15 07:32:24;;;;;;;4.63;4.07;;;24.40;55.40;;;;;;5022111;28;20754;-83
2021/06/15 07:34:52;;;;;;;7.55;4.68;;;24.40;54.90;;;;;;5035805;28;20021;-83
2021/06/15 07:37:20;;;;;;;6.90;3.95;;;24.30;54.50;;;;;;5015542;28;20048;-82
2021/06/15 07:39:45;;;;;;;9.77;3.80;;;24.30;55.20;;;;;;5024832;28;20040;-80
2021/06/15 07:42:11;;;;;;;5.43;3.97;;;24.20;54.90;;;;;;5035934;28;20388;-81
2021/06/15 07:44:37;;;;;;;5.15;3.58;;;24.30;55.00;;;;;;5028347;28;20021;-82
2021/06/15 07:47:02;;;;;;;4.40;3.47;;;24.30;54.30;;;;;;5036012;28;20033;-83
2021/06/15 07:49:30;;;;;;;7.18;3.00;;;24.10;55.50;;;;;;5028807;28;20033;-82
2021/06/15 07:51:56;;;;;;;7.45;3.22;;;24.00;55.10;;;;;;5035810;28;20044;-84
2021/06/15 07:54:21;;;;;;;5.95;3.08;;;23.60;57.00;;;;;;5006058;28;20500;-84
2021/06/15 07:56:47;;;;;;;7.47;3.53;;;23.60;57.20;;;;;;5022724;28;20056;-86
2021/06/15 07:59:13;;;;;;;7.57;3.08;;;23.90;56.20;;;;;;5029003;28;20080;-92
2021/06/15 08:01:38;;;;;;;8.43;3.40;;;24.10;55.30;;;;;;5033042;28;20405;-85
2021/06/15 08:04:04;;;;;;;4.68;2.92;;;24.00;55.00;;;;;;5035560;28;20037;-86
2021/06/15 08:06:30;;;;;;;5.82;3.15;;;24.00;55.60;;;;;;5030808;28;20107;-83
2021/06/15 08:08:58;;;;;;;5.82;2.70;;;24.60;54.90;;;;;;5049086;28;20021;-85
2021/06/15 08:11:23;;;;;;;4.85;2.05;;;25.50;53.60;;;;;;5019329;28;20025;-84
2021/06/15 08:13:49;;;;;;;7.13;3.22;;;26.50;51.50;;;;;;5015115;28;20473;-83
2021/06/15 08:16:15;;;;;;;5.63;3.47;;;26.80;48.80;;;;;;5013794;28;20565;-84
2021/06/15 08:18:40;;;;;;;7.20;3.33;;;26.40;49.60;;;;;;5050931;28;20046;-84
2021/06/15 08:21:06;;;;;;;4.70;3.17;;;26.30;50.00;;;;;;5032703;28;20033;-89
2021/06/15 08:23:32;;;;;;;5.05;3.17;;;26.20;50.10;;;;;;5018043;28;20055;-87
2021/06/15 08:25:58;;;;;;;6.05;2.60;;;26.50;50.00;;;;;;5037997;28;20025;-84
2021/06/15 08:28:24;;;;;;;3.35;2.58;;;27.20;49.50;;;;;;5031972;28;20096;-86
2021/06/15 08:30:51;;;;;;;5.82;1.80;;;27.10;48.00;;;;;;5016045;28;20045;-82
2021/06/15 08:33:17;;;;;;;4.15;2.10;;;27.90;48.80;;;;;;5030412;28;20059;-83
2021/06/15 08:35:43;;;;;;;4.10;2.00;;;28.90;47.00;;;;;;5038161;28;20037;-85
2021/06/15 08:38:13;;;;;;;3.33;1.25;;;30.00;45.00;;;;;;5014017;28;20041;-86
2021/06/15 08:40:38;;;;;;;6.53;1.70;;;30.90;43.50;;;;;;5015203;28;20033;-83
2021/06/15 08:43:05;;;;;;;7.05;2.03;;;31.10;42.10;;;;;;5011656;28;20033;-82
2021/06/15 08:45:31;;;;;;;5.10;1.20;;;31.30;41.80;;;;;;5015976;28;20220;-84
2021/06/15 08:47:59;;;;;;;4.70;1.00;;;31.60;41.40;;;;;;4998365;28;20061;-84
2021/06/15 08:50:27;;;;;;;3.95;1.45;;;32.00;41.30;;;;;;5019755;28;20056;-84
2021/06/15 08:52:54;;;;;;;3.38;1.00;;;32.50;39.20;;;;;;5015170;28;20091;-85
2021/06/15 08:55:21;;;;;;;3.22;1.50;;;32.20;39.80;;;;;;5016238;28;20025;-85
2021/06/15 08:58:08;;;;;;;3.00;0.88;;;31.90;39.80;;;;;;5032627;28;20034;-83
2021/06/15 09:00:34;;;;;;;8.98;2.15;;;32.00;40.10;;;;;;5031017;28;20056;-84
2021/06/15 09:02:59;;;;;;;3.80;2.00;;;32.20;38.70;;;;;;5032725;28;20030;-84
2021/06/15 09:05:25;;;;;;;4.07;1.60;;;32.30;38.80;;;;;;5014587;28;20056;-83
2021/06/15 09:08:04;;;;;;;3.72;1.55;;;32.70;39.20;;;;;;5015197;28;20351;-83
2021/06/15 09:10:38;;;;;;;3.40;2.20;;;33.20;38.60;;;;;;5014773;28;20029;-83
2021/06/15 09:13:04;;;;;;;3.78;1.50;;;33.40;37.80;;;;;;5032930;28;20025;-84
2021/06/15 09:15:31;;;;;;;3.72;1.40;;;32.90;37.20;;;;;;5017261;28;20017;-84
2021/06/15 09:17:59;;;;;;;3.88;1.63;;;32.60;38.40;;;;;;5014744;28;20033;-84
2021/06/15 09:20:28;;;;;;;3.20;1.65;;;32.30;39.30;;;;;;5021726;28;20033;-83
2021/06/15 09:23:06;;;;;;;3.55;1.63;;;32.10;39.30;;;;;;5017952;28;20057;-84
2021/06/15 09:25:33;;;;;;;4.07;1.65;;;32.10;39.50;;;;;;5020543;28;20108;-86
2021/06/15 09:28:14;;;;;;;3.95;1.73;;;31.90;39.40;;;;;;5016635;28;20383;-84
2021/06/15 09:30:54;;;;;;;2.80;1.50;;;32.10;39.50;;;;;;5014655;28;20037;-83
2021/06/15 09:33:36;;;;;;;3.80;2.22;;;31.70;38.60;;;;;;5016799;28;20024;-84
2021/06/15 09:36:07;;;;;;;3.87;1.93;;;31.40;38.60;;;;;;5020354;28;20462;-85
2021/06/15 09:38:34;;;;;;;3.08;1.27;;;30.80;39.70;;;;;;5015966;28;20117;-84
2021/06/15 09:41:00;;;;;;;1.95;1.10;;;30.80;39.90;;;;;;5038910;28;20422;-84
2021/06/15 09:43:26;;;;;;;3.30;0.85;;;31.00;39.50;;;;;;5014598;28;20038;-84
2021/06/15 09:45:51;;;;;;;3.67;1.30;;;31.30;39.40;;;;;;5003558;28;20477;-85
2021/06/15 09:48:21;;;;;;;3.47;1.10;;;31.60;39.00;;;;;;5017899;28;20039;-84
2021/06/15 09:50:47;;;;;;;3.15;1.30;;;31.70;37.90;;;;;;5025977;28;20032;-85
2021/06/15 09:53:44;;;;;;;3.05;0.85;;;31.80;37.70;;;;;;5019900;28;20402;-85
2021/06/15 09:56:14;;;;;;;3.97;1.10;;;31.90;38.20;;;;;;4998422;28;20045;-85
2021/06/15 09:58:50;;;;;;;2.55;1.17;;;32.20;37.60;;;;;;5019479;28;20033;-86
2021/06/15 10:01:33;;;;;;;4.57;1.40;;;32.50;37.80;;;;;;5041119;28;20029;-88
2021/06/15 10:04:18;;;;;;;3.40;1.33;;;32.00;36.10;;;;;;5018930;28;20481;-87
2021/06/15 10:06:47;;;;;;;3.28;1.17;;;30.80;38.50;;;;;;5036090;28;20029;-86
2021/06/15 10:09:13;;;;;;;3.92;1.67;;;31.00;38.70;;;;;;5025393;28;20021;-86
2021/06/15 10:11:40;;;;;;;5.47;1.48;;;31.50;37.80;;;;;;5024823;28;20033;-87
2021/06/15 10:14:06;;;;;;;2.78;1.25;;;31.40;37.90;;;;;;5037096;28;20032;-86
2021/06/15 10:16:32;;;;;;;4.03;1.05;;;31.70;37.40;;;;;;5035568;28;20086;-88
2021/06/15 10:19:01;;;;;;;3.15;1.02;;;31.30;37.00;;;;;;5036812;28;20025;-86
2021/06/15 10:21:27;;;;;;;4.28;0.95;;;30.50;37.70;;;;;;5017690;28;20132;-86
2021/06/15 10:23:53;;;;;;;2.10;0.63;;;30.60;38.60;;;;;;5015721;28;20403;-89
2021/06/15 10:26:19;;;;;;;1.90;0.80;;;30.90;37.90;;;;;;5022576;28;20034;-86
2021/06/15 10:28:45;;;;;;;1.52;0.50;;;31.20;38.50;;;;;;5033508;28;20024;-83
2021/06/15 10:31:11;;;;;;;1.73;0.43;;;31.50;37.80;;;;;;5034017;28;20037;-83
2021/06/15 10:33:48;;;;;;;2.65;0.50;;;31.90;36.40;;;;;;5031868;28;20481;-87
2021/06/15 10:36:15;;;;;;;2.55;0.30;;;32.20;35.80;;;;;;5032978;28;20421;-86
2021/06/15 10:38:44;;;;;;;2.17;0.50;;;32.50;35.30;;;;;;5016728;28;20033;-86
2021/06/15 10:41:30;;;;;;;2.85;0.60;;;32.00;35.30;;;;;;5019141;28;20113;-85
2021/06/15 10:43:57;;;;;;;3.10;0.52;;;31.80;35.50;;;;;;5014780;28;20119;-85
2021/06/15 10:46:31;;;;;;;1.92;0.70;;;31.30;35.70;;;;;;5013849;28;20022;-84
2021/06/15 10:49:02;;;;;;;2.42;0.70;;;31.20;37.60;;;;;;5024977;28;20095;-83
2021/06/15 10:51:39;;;;;;;3.50;0.60;;;31.70;37.10;;;;;;5033710;28;20335;-87
2021/06/15 10:54:29;;;;;;;2.25;0.60;;;32.00;36.50;;;;;;5027090;28;20080;-86
2021/06/15 10:57:30;;;;;;;2.53;0.68;;;32.30;36.10;;;;;;5018230;28;20041;-82
2021/06/15 11:00:06;;;;;;;2.57;0.90;;;32.50;35.70;;;;;;4992983;28;20042;-84
2021/06/15 11:02:33;;;;;;;3.80;0.93;;;32.30;34.80;;;;;;5014520;28;20037;-83
2021/06/15 11:05:37;;;;;;;3.63;0.82;;;31.10;37.10;;;;;;5012522;28;20026;-83
2021/06/15 11:08:19;;;;;;;2.08;0.73;;;31.40;37.50;;;;;;5010747;28;20053;-82
2021/06/15 11:10:46;;;;;;;;;;;31.70;36.50;;;;;;5011851;28;20025;-83
2021/06/15 11:13:12;;;;;;;2.60;0.70;;;32.00;36.30;;;;;;5012945;28;19909;-83
2021/06/15 11:15:59;;;;;;;2.40;0.50;;;32.00;36.20;;;;;;5013443;28;20159;-81
2021/06/15 11:18:25;;;;;;;2.72;0.30;;;31.60;34.20;;;;;;5022274;28;20026;-84
2021/06/15 11:20:51;;;;;;;1.75;0.45;;;31.10;35.40;;;;;;5012675;28;20168;-84
2021/06/15 11:23:22;;;;;;;2.05;0.40;;;30.90;34.80;;;;;;5014799;28;20058;-84
2021/06/15 11:25:48;;;;;;;2.28;0.40;;;31.00;35.40;;;;;;5026823;28;20080;-83
2021/06/15 11:28:43;;;;;;;1.42;0.40;;;31.10;35.10;;;;;;5015306;28;20026;-83
2021/06/15 11:31:19;;;;;;;1.98;0.40;;;31.20;35.10;;;;;;5029496;28;20033;-81
2021/06/15 11:34:14;;;;;;;2.30;0.50;;;31.50;35.40;;;;;;5030335;28;20044;-84
2021/06/15 11:36:49;;;;;;;2.60;0.60;;;31.90;35.00;;;;;;5022387;28;20536;-83
2021/06/15 11:39:28;;;;;;;1.77;0.65;;;31.60;34.90;;;;;;5029957;28;20022;-84
2021/06/15 11:42:09;;;;;;;2.63;0.98;;;30.80;35.00;;;;;;5012632;28;20088;-85
2021/06/15 11:44:56;;;;;;;2.30;0.50;;;30.40;35.40;;;;;;5013300;28;20030;-85
2021/06/15 11:47:22;;;;;;;2.03;0.50;;;30.50;36.80;;;;;;5012002;28;20180;-84
2021/06/15 11:50:06;;;;;;;2.58;0.50;;;31.00;36.40;;;;;;5011746;28;20522;-83
2021/06/15 11:52:32;;;;;;;2.05;0.40;;;31.40;35.60;;;;;;5031695;28;20056;-83
2021/06/15 11:54:58;;;;;;;3.63;0.40;;;31.80;35.70;;;;;;5013736;28;20465;-84
2021/06/15 11:57:25;;;;;;;1.38;0.50;;;32.30;34.90;;;;;;5023385;28;20456;-84
2021/06/15 11:59:51;;;;;;;3.58;0.40;;;32.80;33.80;;;;;;5015238;28;20025;-82
2021/06/15 12:02:21;;;;;;;5.32;0.70;;;32.60;34.10;;;;;;5015106;28;20462;-85
2021/06/15 12:05:10;;;;;;;2.15;0.52;;;32.70;34.10;;;;;;5011339;28;20387;-83
2021/06/15 12:07:41;;;;;;;3.90;0.50;;;32.50;34.60;;;;;;5023047;28;20481;-82
2021/06/15 12:10:13;;;;;;;4.03;0.73;;;32.40;34.90;;;;;;5033282;28;20032;-83
2021/06/15 12:12:58;;;;;;;2.17;0.60;;;32.50;33.70;;;;;;5031313;28;20434;-85
2021/06/15 12:15:42;;;;;;;3.22;0.95;;;31.90;34.30;;;;;;5016300;28;20474;-84
2021/06/15 12:18:21;;;;;;;3.90;0.70;;;31.10;34.60;;;;;;5017125;28;20044;-84
2021/06/15 12:20:47;;;;;;;5.35;0.85;;;30.60;37.10;;;;;;5011747;28;20084;-85
2021/06/15 12:23:39;;;;;;;3.78;0.70;;;30.50;36.40;;;;;;5019919;28;20056;-86
2021/06/15 12:26:29;;;;;;;3.28;0.70;;;30.50;36.30;;;;;;5033955;28;20025;-86
2021/06/15 12:29:13;;;;;;;4.60;0.60;;;30.50;36.90;;;;;;5034071;28;20507;-84
2021/06/15 12:31:49;;;;;;;2.47;0.50;;;30.70;37.50;;;;;;5015979;28;20327;-83
2021/06/15 12:34:18;;;;;;;2.53;0.50;;;31.10;36.50;;;;;;5015950;28;20142;-84
2021/06/15 12:36:49;;;;;;;1.55;0.45;;;30.90;36.90;;;;;;5006720;28;20032;-86
2021/06/15 12:39:22;;;;;;;5.03;0.80;;;30.80;36.30;;;;;;5025128;28;20491;-84
2021/06/15 12:41:49;;;;;;;3.60;0.55;;;30.50;35.70;;;;;;5034713;28;20025;-86
2021/06/15 12:44:15;;;;;;;3.35;0.60;;;30.30;36.90;;;;;;5033706;28;20091;-83
2021/06/15 12:46:42;;;;;;;2.33;0.60;;;29.80;37.00;;;;;;5007321;28;20087;-85
2021/06/15 12:49:20;;;;;;;3.15;0.50;;;29.50;38.00;;;;;;5016262;28;20034;-83
2021/06/15 12:52:12;;;;;;;2.55;0.60;;;29.30;38.10;;;;;;5032275;28;20034;-85
2021/06/15 12:54:42;;;;;;;2.30;0.40;;;29.60;38.00;;;;;;5017629;28;20044;-80
2021/06/15 12:57:26;;;;;;;2.10;0.35;;;29.80;38.80;;;;;;5017926;28;20083;-82
2021/06/15 13:00:04;;;;;;;4.03;0.60;;;30.00;38.50;;;;;;4982008;28;20045;-84
2021/06/15 13:02:30;;;;;;;2.17;0.40;;;30.40;38.10;;;;;;5028538;28;20035;-81
2021/06/15 13:04:58;;;;;;;3.28;0.50;;;30.70;37.70;;;;;;5029786;28;20034;-82